Tiempo atmosférico en la estación meteorológica de Villanueva De Córdoba, Córdoba (740 m.)



Fecha
DESCASC
Temp. máxima en grados centígrados (hora)
DESCASC
Temp. mínima en grados centígrados (hora)
DESCASC
Temp. media en grados centígrados
DESCASC
Racha de viento máxima en m/sg (hora)
DESCASC
Velocidad máxima media en intervalos de 10 minutos(hora)
DESCASC
Precipitaciones diarias en mm
DESCASC
Precipitaciones de 00:00 a 06:00 en mm
DESCASC
Precipitaciones de 06:00 a 12:00 en mm
DESCASC
Precipitaciones de 12:00 a 18:00 en mm
DESCASC
Precipitaciones de 18:00 a 24:00 en mm
DESCASC
19-05-2019 20.7 (17:50) 7.3 (07:40) 14 15.28 (13:40) 5.83 (16:10) 0 0 0 0 0
18-05-2019 18.2 (17:30) 7 (07:00) 12.6 15.83 (15:20) 7.5 (16:10) 0 0 0 0 0
17-05-2019 17.6 (18:10) 6.7 (07:10) 12.2 14.72 (09:10) 7.5 (01:00) 0 0 0 0 0
16-05-2019 30.1 (16:30) 14.5 (00:00) 22.3 17.5 (21:10) 8.89 (20:10) 0 0 0 0 0
15-05-2019 31.9 (16:40) 14.3 (00:00) 23.1 11.67 (19:20) 4.72 (18:50) 0 0 0 0 0
14-05-2019 30 (18:20) 13.1 (00:00) 21.6 8.61 (20:00) 3.89 (20:00) 0 0 0 0 0
13-05-2019 30.3 (15:40) 16 (00:00) 23.1 8.61 (17:00) 3.89 (16:20) 0 0 0 0 0
12-05-2019 29.7 (17:00) 13 (00:00) 21.4 8.89 (11:40) 3.89 (11:00) 0 0 0 0 0
11-05-2019 28.3 (18:10) 12.4 (00:00) 20.3 8.89 (16:10) 3.33 (15:00) 0 0 0 0 0
10-05-2019 25.6 (17:00) 13 (00:00) 19.3 8.89 (15:30) 4.17 (16:40) 0 0 0 0 0
09-05-2019 22.8 (18:40) 12.7 (00:00) 17.7 9.72 (00:20) 5.83 (00:30) 0.4 0 0.4 0 0
08-05-2019 18.7 (15:10) 12.1 (00:00) 15.4 11.11 (11:50) 5.83 (12:50) 0 0 0 0 0
07-05-2019 26 (17:30) 10.1 (00:00) 18.1 9.17 (17:00) 5 (17:00) 0 0 0 0 0
06-05-2019 24 (15:30) 9.6 (00:00) 16.8 9.17 (14:20) 4.72 (14:30) 0 0 0 0 0
05-05-2019 23.8 (17:30) 11.1 (00:00) 17.4 9.17 (16:40) 4.72 (17:50) 0 0 0 0 0
04-05-2019 23.8 (17:50) 9.6 (00:00) 16.7 7.22 (17:10) 4.17 (21:10) 0 0 0 0 0
03-05-2019 24.8 (15:50) 11.5 (00:00) 18.1 13.33 (16:40) 6.39 (16:20) 0 0 0 0 0
02-05-2019 26.3 (15:40) 13.5 (06:20) 19.9 8.06 (17:00) 3.89 (17:00) 0 0 0 0 0
01-05-2019 26.7 (15:30) 13.1 (00:00) 19.9 5.56 (16:40) 2.78 (21:10) 0 0 0 0 0
30-04-2019 26.5 (17:30) 11.2 (00:00) 18.8 6.39 (14:20) 3.33 (17:00) 0 0 0 0 0
29-04-2019 26.1 (17:30) 11.4 (00:00) 18.8 7.5 (19:20) 3.33 (17:50) 0 0 0 0 0
28-04-2019 25.4 (17:40) 11 (00:00) 18.2 6.39 (09:20) 3.61 (09:30) 0 0 0 0 0
27-04-2019 22.2 (17:20) 7.3 (00:00) 14.8 8.61 (11:10) 3.89 (11:10) 0 0 0 0 0
26-04-2019 16.4 (17:40) 3.8 (00:00) 10.1 8.89 (02:20) 4.17 (02:20) 0 0 0 0 0
25-04-2019 14.3 (17:00) 6.8 (00:00) 10.6 13.61 (17:40) 8.33 (17:50) 14.8 13.6 1 0 0.2
24-04-2019 11.4 (17:20) 3.1 (00:00) 7.2 18.33 (18:30) 9.44 (19:10) 4.6 0.2 0 0.2 4.2
23-04-2019 12.6 (00:00) 4.6 (00:00) 8.6 14.72 (18:20) 6.94 (15:20) 12.8 0.2 9.6 1 2

Gráficas

Temp. máximas Temp. mínimas Temp. medias Precipitaciones Rachas de viento máximas Velocidades máximas media en intervalos de 10 minutos

Datos horarios

Fecha y hora oficial Temperatura (ºC) Velocidad del viento (km/h) Dirección del viento Racha (km/h) Dirección de racha Precipitación (mm) Presión (hPa) Tendencia (hPa) Humedad (%)
2019-05-22 23:00:00 19.9 10 Sudoeste 21 Sudoeste 0 932.1 1.1 31
2019-05-22 22:00:00 21.4 8 Sur 16 Sudoeste 0 931.6 0.6 27
2019-05-22 21:00:00 24.9 9 Sudoeste 19 Sudoeste 0 931.3 0.2 22
2019-05-22 20:00:00 24.8 5 Sudeste 17 Sudoeste 0 931 -0.3 21
2019-05-22 19:00:00 26.1 8 Sudoeste 16 Oeste 0 931 -0.4 20
2019-05-22 18:00:00 27.6 8 Oeste 22 Sudoeste 0 931.1 -0.8 19
2019-05-22 17:00:00 27.5 9 Sur 23 Sudoeste 0 931.3 -0.9 19
2019-05-22 16:00:00 27.3 11 Sur 31 Sur 0 931.4 -1 20
2019-05-22 15:00:00 25.6 8 Sudeste 23 Sur 0 931.9 -0.5 21
2019-05-22 14:00:00 26.8 8 Sur 24 Sudoeste 0 932.2 -0.1 21
2019-05-22 13:00:00 26.2 8 Sur 22 Sur 0 932.4 0.3 21
2019-05-22 12:00:00 24.4 6 Sur 19 Sur 0 932.4 0.7 26
2019-05-22 11:00:00 22.8 7 Sur 17 Sudeste 0 932.3 1 29
2019-05-22 10:00:00 21 5 Sudeste 12 Sudeste 0 932.1 1.3 34
2019-05-22 09:00:00 17.3 3 Sur 9 Sur 0 931.7 0.9 48
2019-05-22 08:00:00 13.2 0 Calma 8 Noroeste 0 931.3 0.5 61
2019-05-22 07:00:00 12.2 7 Noroeste 10 Noroeste 0 930.8 0 60
2019-05-22 06:00:00 12.2 6 Sur 12 Este 0 930.8 0.1 68
2019-05-22 05:00:00 13.7 6 Sur 12 Sur 0 930.8 0 53
2019-05-22 04:00:00 15.9 8 Noroeste 13 Noroeste 0 930.8 0.1 35
2019-05-22 03:00:00 15.8 6 Noroeste 10 Oeste 0 930.7 -0.1 34
2019-05-22 02:00:00 15.2 5 Oeste 10 Sudoeste 0 930.8 0.4 37
2019-05-22 01:00:00 16 3 Norte 8 Noroeste 0 930.7 0.9 35
2019-05-22 00:00:00 17.5 5 Norte 16 Norte 0 930.8 1.6 31
2019-05-21 23:00:00 18.2 6 Norte 12 Norte 0 930.4 1.9 30
2019-05-21 22:00:00 19.6 5 Norte 17 Norte 0 929.8 1.3 28
2019-05-21 21:00:00 22.6 8 Norte 22 Noroeste 0 929.2 0.6 23
2019-05-21 20:00:00 24.2 8 Noroeste 25 Oeste 0 928.5 -0.3 20
2019-05-21 19:00:00 24.5 15 Oeste 28 Oeste 0 928.5 -0.5 20
2019-05-21 18:00:00 23 9 Noroeste 23 Oeste 0 928.6 -0.5 23
2019-05-21 17:00:00 23.1 14 Oeste 30 Sudoeste 0 928.8 -0.7 23
2019-05-21 16:00:00 25.1 9 Sudoeste 28 Sudoeste 0 929 -0.6 22
2019-05-21 15:00:00 23.2 9 Noroeste 33 Oeste 0 929.1 -0.7 26
2019-05-21 14:00:00 22.3 9 Noroeste 26 Sudoeste 0 929.5 -0.2 27
2019-05-21 13:00:00 21.6 8 Norte 27 Sudoeste 0 929.6 0.1 29
2019-05-21 12:00:00 21.1 10 Oeste 19 Oeste 0 929.8 0.6 30
2019-05-21 11:00:00 19 10 Noroeste 17 Noroeste 0 929.7 0.9 34
2019-05-21 10:00:00 16.6 8 Noroeste 18 Noroeste 0 929.5 1 44
2019-05-21 09:00:00 14.3 8 Noroeste 16 Noroeste 0 929.2 1 53
2019-05-21 08:00:00 11.6 10 Noroeste 18 Noroeste 0 928.8 0.5 63
2019-05-21 07:00:00 11.1 10 Noroeste 17 Noroeste 0 928.5 0.3 63
2019-05-21 06:00:00 12 7 Noroeste 13 Noroeste 0 928.2 -0.1 57
2019-05-21 05:00:00 13.2 8 Noroeste 18 Noroeste 0 928.3 -0.4 51
2019-05-21 04:00:00 13.9 9 Noroeste 18 Noroeste 0 928.2 -0.4 49
2019-05-21 03:00:00 14.7 9 Noroeste 24 Oeste 0 928.3 -0.2 45
2019-05-21 02:00:00 15.2 9 Noroeste 19 Noroeste 0 928.7 0.5 38
2019-05-21 01:00:00 15.1 6 Oeste 8 Noroeste 0 928.6 1.2 32
2019-05-21 00:00:00 16.2 6 Noroeste 9 Norte 0 928.5 1.6 30
2019-05-20 23:00:00 16.4 6 Norte 11 Norte 0 928.2 1.7 29
2019-05-20 22:00:00 18.1 6 Norte 24 Norte 0 927.4 0.9 26
2019-05-20 21:00:00 20.5 11 Noroeste 25 Noroeste 0 926.9 0.4 21
2019-05-20 20:00:00 22.4 10 Norte 30 Noroeste 0 926.5 -0.3 19
2019-05-20 19:00:00 23.5 11 Noroeste 36 Noroeste 0 926.5 -0.8 18
2019-05-20 18:00:00 23.5 5 Noroeste 36 Sudoeste 0 926.5 -1.1 18
2019-05-20 17:00:00 22.7 12 Sur 27 Sudoeste 0 926.8 -1.3 21
2019-05-20 16:00:00 22.6 13 Sur 34 Sur 0 927.3 -0.8 26
2019-05-20 15:00:00 20.9 11 Sudoeste 27 Sur 0 927.6 -0.5 30
2019-05-20 14:00:00 21.3 10 Sudoeste 28 Sudoeste 0 928.1 0 29
2019-05-20 13:00:00 20.1 12 Sudoeste 23 Sudoeste 0 928.1 0.1 33
2019-05-20 12:00:00 18.1 14 Oeste 35 Sudoeste 0 928.1 0.6 36
2019-05-20 11:00:00 18.7 10 Sudoeste 22 Sudoeste 0 928.1 0.9 39
2019-05-20 10:00:00 16.2 7 Sudoeste 14 Sudoeste 0 928 1.2 44
2019-05-20 09:00:00 12.7 9 Sur 14 Sur 0 927.5 0.7 55
2019-05-20 08:00:00 9.1 5 Sur 9 Sur 0 927.2 0.2 66
2019-05-20 07:00:00 9.7 5 Oeste 12 Oeste 0 926.8 -0.4 62
2019-05-20 06:00:00 10.5 7 Noroeste 14 Noroeste 0 926.8 -0.7 59
2019-05-20 05:00:00 10.9 8 Noroeste 13 Noroeste 0 927 -0.7 57
2019-05-20 04:00:00 11.5 7 Noroeste 12 Noroeste 0 927.2 -0.8 54
2019-05-20 03:00:00 12.1 7 Noroeste 13 Noroeste 0 927.5 -0.3 50
2019-05-20 02:00:00 12.7 7 Noroeste 19 Noroeste 0 927.7 0.2 47
2019-05-20 01:00:00 13.9 12 Oeste 23 Oeste 0 928 1 41
2019-05-20 00:00:00 14.6 8 Oeste 17 Oeste 0 927.8 1.2 33
2019-05-19 23:00:00 14.8 9 Oeste 15 Oeste 0 927.5 1.3 33
2019-05-19 22:00:00 15.8 8 Oeste 20 Oeste 0 927 0.7 30
2019-05-19 21:00:00 17.5 9 Noroeste 25 Noroeste 0 926.6 0.4 27
2019-05-19 20:00:00 18.7 20 Oeste 35 Noroeste 0 926.2 -0.4 25
2019-05-19 19:00:00 19.2 17 Noroeste 42 Oeste 0 926.3 -0.7 23
2019-05-19 18:00:00 20.3 18 Noroeste 40 Noroeste 0 926.2 -1 22
2019-05-19 17:00:00 20 17 Noroeste 45 Noroeste 0 926.6 -0.7 21
2019-05-19 16:00:00 19.6 18 Noroeste 41 Noroeste 0 927 -0.4 22
2019-05-19 15:00:00 18.6 21 Noroeste 41 Noroeste 0 927.2 -0.4 23
2019-05-19 14:00:00 18 15 Noroeste 55 Noroeste 0 927.3 -0.3 28
2019-05-19 13:00:00 16.8 12 Norte 33 Noroeste 0 927.4 -0.1 31
2019-05-19 12:00:00 15.4 13 Noroeste 28 Noroeste 0 927.6 0.3 34
2019-05-19 11:00:00 13.8 12 Noroeste 27 Norte 0 927.6 0.5 45
2019-05-19 10:00:00 11.9 10 Noroeste 19 Noroeste 0 927.5 0.7 52
2019-05-19 09:00:00 9.7 11 Noroeste 20 Noroeste 0 927.3 0.8 61
2019-05-19 08:00:00 7.8 6 Noroeste 15 Sudoeste 0 927.1 0.5 67
2019-05-19 07:00:00 7.8 5 Noroeste 13 Noroeste 0 926.8 0.1 65
2019-05-19 06:00:00 8.7 8 Noroeste 19 Noroeste 0 926.5 -0.4 61
2019-05-19 05:00:00 9.4 8 Noroeste 26 Noroeste 0 926.6 -0.7 56
2019-05-19 04:00:00 9.8 10 Noroeste 30 Noroeste 0 926.7 -1 53
2019-05-19 03:00:00 10.6 14 Noroeste 26 Noroeste 0 926.9 -0.9 47
2019-05-19 02:00:00 11.1 11 Noroeste 23 Noroeste 0 927.3 -0.3 43
2019-05-19 01:00:00 11.3 10 Noroeste 18 Noroeste 0 927.7 0.5 39
2019-05-19 00:00:00 11.6 8 Oeste 15 Oeste 0 927.8 0.9 36
2019-05-18 23:00:00 12.1 5 Oeste 12 Oeste 0 927.6 1.1 31
2019-05-18 22:00:00 13 6 Noroeste 28 Noroeste 0 927.2 1.1 29
2019-05-18 21:00:00 15.1 10 Noroeste 37 Noroeste 0 926.9 1 23
2019-05-18 20:00:00 17 17 Noroeste 39 Noroeste 0 926.5 0.7 20
2019-05-18 19:00:00 17.5 20 Noroeste 48 Oeste 0 926.1 0 19
2019-05-18 18:00:00 17.4 24 Noroeste 51 Noroeste 0 925.9 -0.3 18
2019-05-18 17:00:00 17.3 21 Noroeste 54 Noroeste 0 925.8 -0.6 19
2019-05-18 16:00:00 17 23 Noroeste 57 Noroeste 0 926.1 -0.4 20
2019-05-18 15:00:00 16.6 22 Noroeste 44 Oeste 0 926.2 -0.4 22
2019-05-18 14:00:00 16.1 16 Noroeste 50 Oeste 0 926.4 0.2 24
2019-05-18 13:00:00 14.6 16 Noroeste 36 Noroeste 0 926.5 0.3 29
2019-05-18 12:00:00 13.8 21 Noroeste 36 Oeste 0 926.6 0.6 34
2019-05-18 11:00:00 11.9 18 Noroeste 37 Oeste 0 926.2 0.6 46
2019-05-18 10:00:00 10.4 16 Noroeste 33 Noroeste 0 926.2 0.6 56
2019-05-18 09:00:00 8.7 15 Noroeste 29 Noroeste 0 926 0.6 64
2019-05-18 08:00:00 7.1 5 Oeste 19 Noroeste 0 925.6 0.5 69
2019-05-18 07:00:00 7.1 6 Noroeste 17 Noroeste 0 925.6 -0.4 68
2019-05-18 06:00:00 7.9 9 Noroeste 17 Norte 0 925.4 -1 65
2019-05-18 05:00:00 8.7 7 Noroeste 22 Noroeste 0 925.1 -1.7 62
2019-05-18 04:00:00 9.2 10 Noroeste 20 Noroeste 0 926 -1 58
2019-05-18 03:00:00 9.8 11 Noroeste 31 Noroeste 0 926.4 -0.6 55
2019-05-18 02:00:00 10.7 16 Noroeste 29 Noroeste 0 926.8 -0.3 51
2019-05-18 01:00:00 11 9 Oeste 19 Oeste 0 927 0.5 47
2019-05-18 00:00:00 11.7 10 Oeste 18 Oeste 0 927 0.6 42
2019-05-17 23:00:00 12.4 6 Oeste 23 Oeste 0 927.1 0.9 37
2019-05-17 22:00:00 13.3 11 Oeste 24 Noroeste 0 926.5 0.2 35
2019-05-17 21:00:00 15.4 14 Oeste 41 Oeste 0 926.4 0 31
2019-05-17 20:00:00 16.5 17 Oeste 35 Oeste 0 926.2 -0.7 27
2019-05-17 19:00:00 17.3 22 Oeste 42 Noroeste 0 926.3 -0.6 26
2019-05-17 18:00:00 17.5 15 Noroeste 37 Noroeste 0 926.4 -0.6 28
2019-05-17 17:00:00 16.5 16 Noroeste 39 Noroeste 0 926.9 -0.3 32
2019-05-17 16:00:00 15.4 17 Noroeste 41 Oeste 0 926.9 -0.1 34
2019-05-17 15:00:00 16.2 18 Noroeste 43 Noroeste 0 927 0 32
2019-05-17 14:00:00 15.3 15 Noroeste 42 Noroeste 0 927.2 0.4 34
2019-05-17 13:00:00 13.9 14 Noroeste 39 Noroeste 0 927 0.5 41
2019-05-17 12:00:00 12.8 18 Noroeste 40 Noroeste 0 927 0.6 44
2019-05-17 11:00:00 11.3 22 Noroeste 50 Noroeste 0 926.8 0.5 50
2019-05-17 10:00:00 10.7 19 Noroeste 53 Noroeste 0 926.5 0.7 52
2019-05-17 09:00:00 8.5 22 Noroeste 49 Noroeste 0 926.4 1 62
2019-05-17 08:00:00 7 20 Noroeste 47 Noroeste 0 926.3 1.2 69
2019-05-17 07:00:00 6.8 17 Noroeste 41 Noroeste 0 925.8 0.8 70
2019-05-17 06:00:00 7.5 15 Noroeste 36 Noroeste 0 925.4 0.1 72
2019-05-17 05:00:00 8.3 20 Noroeste 43 Noroeste 0 925.1 0.1 70
2019-05-17 04:00:00 9.2 19 Oeste 37 Noroeste 0 925 -0.5 70
2019-05-17 03:00:00 10.4 18 Noroeste 47 Noroeste 0 925.3 0.3 65
2019-05-17 02:00:00 11.4 23 Noroeste 47 Noroeste 0 925 0.6 62
2019-05-17 01:00:00 12.7 27 Noroeste 50 Noroeste 0 925.5 1.4 61
2019-05-17 00:00:00 14.5 22 Noroeste 49 Noroeste 0 925 1.7 60
2019-05-16 23:00:00 17.1 15 Oeste 39 Oeste 0 924.4 1.8 44
2019-05-16 22:00:00 19 22 Noroeste 63 Oeste 0 924.1 1.5 28
2019-05-16 21:00:00 22.1 28 Oeste 56 Oeste 0 923.3 0.4 28
2019-05-16 20:00:00 25.6 27 Oeste 54 Oeste 0 922.6 -0.6 19
2019-05-16 19:00:00 27.7 24 Oeste 54 Oeste 0 922.6 -1 14
2019-05-16 18:00:00 28.5 27 Oeste 55 Oeste 0 922.9 -1.3 12
2019-05-16 17:00:00 29.3 27 Oeste 50 Sudoeste 0 923.2 -1.7 13
2019-05-16 16:00:00 29.8 19 Sudoeste 44 Sudoeste 0 923.6 -1.8 20
2019-05-16 15:00:00 29.2 18 Oeste 36 Sudoeste 0 924.2 -1.4 18
2019-05-16 14:00:00 28.6 18 Sudoeste 39 Sudoeste 0 924.9 -0.6 17
2019-05-16 13:00:00 27.9 16 Sudoeste 35 Sudoeste 0 925.4 -0.2 23
2019-05-16 12:00:00 26.5 18 Sudoeste 35 Sudoeste 0 925.6 0 25
2019-05-16 11:00:00 25.5 18 Sudoeste 35 Sudoeste 0 925.5 -0.1 24
2019-05-16 10:00:00 23.3 11 Sudoeste 20 Sudoeste 0 925.6 0.1 35
2019-05-16 09:00:00 20.6 8 Sur 18 Este 0 925.6 0.1 42
2019-05-16 08:00:00 16.3 7 Sur 10 Sudeste 0 925.6 0 52
2019-05-16 07:00:00 15.9 7 Sur 14 Sudoeste 0 925.5 -0.5 53
2019-05-16 06:00:00 17.4 7 Sur 12 Noroeste 0 925.5 -1 50
2019-05-16 05:00:00 19.2 9 Noroeste 15 Noroeste 0 925.6 -1.3 44
2019-05-16 04:00:00 19.6 9 Noroeste 16 Oeste 0 926 -1 42
2019-05-16 03:00:00 20.4 9 Noroeste 19 Noroeste 0 926.5 -0.6 35
2019-05-16 02:00:00 21.1 9 Noroeste 22 Oeste 0 926.9 -0.1 31
2019-05-16 01:00:00 21.8 10 Oeste 19 Oeste 0 927 0.3 25
2019-05-16 00:00:00 22.4 6 Sur 8 Sur 0 927.1 0.6 22
2019-05-15 23:00:00 24 4 Noroeste 5 Norte 0 927 0.6 19
2019-05-15 22:00:00 24.7 5 Nordeste 12 Norte 0 926.7 0.3 16
2019-05-15 21:00:00 27.4 5 Norte 19 Noroeste 0 926.5 -0.1 14
2019-05-15 20:00:00 29.1 9 Noroeste 42 Noroeste 0 926.4 -0.4 13
2019-05-15 19:00:00 31 12 Noroeste 31 Noroeste 0 926.4 -0.8 11
2019-05-15 18:00:00 31.2 12 Noroeste 34 Oeste 0 926.6 -1.2 11
2019-05-15 17:00:00 31.4 15 Noroeste 41 Noroeste 0 926.8 -1.3 11
2019-05-15 16:00:00 31.1 15 Noroeste 35 Oeste 0 927.2 -1.4 13
2019-05-15 15:00:00 30.4 15 Oeste 32 Noroeste 0 927.8 -1 12
2019-05-15 14:00:00 29.5 12 Noroeste 32 Noroeste 0 928.1 -0.8 16
2019-05-15 13:00:00 28.7 14 Noroeste 25 Noroeste 0 928.6 -0.4 17
2019-05-15 12:00:00 27.4 12 Oeste 29 Oeste 0 928.8 0.1 19
2019-05-15 11:00:00 25.8 5 Oeste 16 Oeste 0 928.9 0.4 27
2019-05-15 10:00:00 22.3 4 Oeste 9 Sudoeste 0 929 0.7 31
2019-05-15 09:00:00 18.9 5 Sudoeste 8 Oeste 0 928.7 0.4 33
2019-05-15 08:00:00 14.8 5 Sudoeste 8 Sudoeste 0 928.5 0 33
2019-05-15 07:00:00 14.4 6 Sur 12 Sur 0 928.3 -0.4 31
2019-05-15 06:00:00 14.7 8 Sur 11 Sur 0 928.3 -0.8 31
2019-05-15 05:00:00 15.9 6 Sudeste 10 Sur 0 928.5 -1 29
2019-05-15 04:00:00 15.6 7 Sur 11 Sur 0 928.7 -1.2 30
2019-05-15 03:00:00 15.9 5 Sur 14 Sur 0 929.1 -1.1 31
2019-05-15 02:00:00 16.9 8 Sur 13 Sur 0 929.5 -0.6 30
2019-05-15 01:00:00 17.5 6 Sur 14 Sur 0 929.9 0.2 30
2019-05-15 00:00:00 18.2 6 Sur 17 Sur 0 930.2 0.7 30
2019-05-14 23:00:00 19.7 10 Sur 18 Sur 0 930.1 0.8 27
2019-05-14 22:00:00 21.7 12 Sudoeste 23 Sudoeste 0 929.7 0.4 25
2019-05-14 21:00:00 25.2 13 Sur 26 Sudoeste 0 929.5 -0.2 22
2019-05-14 20:00:00 27.9 14 Sur 31 Sudoeste 0 929.3 -0.8 20
2019-05-14 19:00:00 29.7 8 Sudoeste 20 Sudoeste 0 929.3 -1.3 19
2019-05-14 18:00:00 29.6 10 Oeste 24 Oeste 0 929.7 -1.4 18
2019-05-14 17:00:00 29.3 9 Oeste 23 Sudoeste 0 930.1 -1.5 20
2019-05-14 16:00:00 28.3 7 Oeste 21 Oeste 0 930.6 -1.3 21
2019-05-14 15:00:00 27.1 10 Oeste 20 Sudoeste 0 931.1 -0.8 22
2019-05-14 14:00:00 26.2 8 Sudeste 25 Sur 0 931.6 -0.4 23
2019-05-14 13:00:00 24.8 9 Sudeste 26 Sudeste 0 931.9 0 24
2019-05-14 12:00:00 23.6 11 Sur 29 Sur 0 931.9 0.1 27
2019-05-14 11:00:00 22.4 11 Sur 24 Sudeste 0 932 0.4 32
2019-05-14 10:00:00 20.3 11 Sudeste 18 Sudeste 0 931.9 0.6 41
2019-05-14 09:00:00 16.9 6 Sudeste 13 Sudeste 0 931.8 0.6 57
2019-05-14 08:00:00 13.4 6 Sudeste 14 Sudeste 0 931.6 0.6 67
2019-05-14 07:00:00 13.2 9 Sudeste 18 Sur 0 931.3 0.1 65
2019-05-14 06:00:00 13.8 8 Sur 18 Sur 0 931.2 0 57
2019-05-14 05:00:00 14.3 9 Sur 20 Sur 0 931 -0.4 45
2019-05-14 04:00:00 16.4 10 Sudeste 20 Sudeste 0 931.2 0.1 27
2019-05-14 03:00:00 17.7 10 Sur 23 Sudeste 0 931.2 0 22
2019-05-14 02:00:00 18.1 9 Sudeste 15 Sudeste 0 931.4 0.3 19
2019-05-14 01:00:00 21.1 8 Este 18 Este 0 931.1 0.4 14
2019-05-14 00:00:00 19.9 9 Este 17 Este 0 931.2 0.6 17
2019-05-13 23:00:00 21.2 7 Este 12 Este 0 931.1 0.8 16
2019-05-13 22:00:00 23 6 Este 10 Este 0 930.7 0.3 15
2019-05-13 21:00:00 27.4 4 Nordeste 18 Este 0 930.6 0.1 13
2019-05-13 20:00:00 28.7 9 Nordeste 24 Este 0 930.3 -0.4 11
2019-05-13 19:00:00 29.3 9 Nordeste 27 Nordeste 0 930.4 -0.7 11
2019-05-13 18:00:00 29.6 11 Nordeste 28 Nordeste 0 930.5 -1 11
2019-05-13 17:00:00 29.8 12 Norte 31 Norte 0 930.7 -1.5 11
2019-05-13 16:00:00 29.8 13 Nordeste 26 Nordeste 0 931.1 -1.8 9
2019-05-13 15:00:00 29.3 10 Norte 30 Nordeste 0 931.5 -1.9 9
2019-05-13 14:00:00 28.5 6 Nordeste 22 Norte 0 932.2 -1.4 10
2019-05-13 13:00:00 27.6 10 Norte 23 Norte 0 932.9 -0.8 11
2019-05-13 12:00:00 26.8 9 Nordeste 20 Norte 0 933.4 -0.2 11
2019-05-13 11:00:00 25.5 6 Este 15 Nordeste 0 933.6 0.1 11
2019-05-13 10:00:00 23.3 6 Nordeste 14 Nordeste 0 933.7 0.4 14
2019-05-13 09:00:00 20 5 Norte 12 Norte 0 933.6 0.4 16
2019-05-13 08:00:00 16.9 5 Nordeste 7 Nordeste 0 933.5 0.1 20
2019-05-13 07:00:00 16.4 5 Sudeste 8 Sudeste 0 933.3 -0.4 18
2019-05-13 06:00:00 16.2 6 Este 9 Este 0 933.2 -0.7 17
2019-05-13 05:00:00 16.8 6 Este 10 Este 0 933.4 -0.9 17
2019-05-13 04:00:00 18.4 7 Este 12 Sudeste 0 933.7 -0.7 14
2019-05-13 03:00:00 18 6 Sudeste 11 Sudeste 0 933.9 -0.7 17
2019-05-13 02:00:00 18 7 Sudeste 14 Este 0 934.3 -0.3 19
2019-05-13 01:00:00 18.7 9 Este 16 Este 0 934.4 0.1 21
2019-05-13 00:00:00 19.4 10 Este 15 Este 0 934.6 0.4 25
2019-05-12 23:00:00 19.9 6 Este 12 Nordeste 0 934.6 0.7 28
2019-05-12 22:00:00 21.4 8 Nordeste 12 Nordeste 0 934.3 0.3 29
2019-05-12 21:00:00 25.3 8 Nordeste 25 Nordeste 0 934.2 0.1 23
2019-05-12 20:00:00 27.4 12 Nordeste 24 Norte 0 933.9 -0.7 20
2019-05-12 19:00:00 28.8 10 Nordeste 26 Nordeste 0 934 -1.2 22
2019-05-12 18:00:00 29.3 6 Este 28 Sur 0 934.1 -1.5 22
2019-05-12 17:00:00 29.2 9 Oeste 23 Este 0 934.6 -1.5 25
2019-05-12 16:00:00 29.4 10 Sudoeste 27 Sudeste 0 935.2 -1.3 25
2019-05-12 15:00:00 28.4 7 Sudeste 24 Sudeste 0 935.6 -1.1 27
2019-05-12 14:00:00 28.2 9 Sur 26 Este 0 936.1 -0.5 30
2019-05-12 13:00:00 27 10 Este 28 Este 0 936.5 0.2 25
2019-05-12 12:00:00 26.2 13 Este 32 Sudeste 0 936.7 0.7 23
2019-05-12 11:00:00 24.4 14 Este 27 Este 0 936.6 0.8 26
2019-05-12 10:00:00 23 9 Este 20 Este 0 936.3 0.7 28
2019-05-12 09:00:00 18.6 4 Este 12 Nordeste 0 936 0.7 36
2019-05-12 08:00:00 14 8 Nordeste 14 Nordeste 0 935.8 0.5 46
2019-05-12 07:00:00 13.2 8 Nordeste 13 Nordeste 0 935.6 0.4 46
2019-05-12 06:00:00 14.2 8 Nordeste 14 Nordeste 0 935.3 -0.1 43
2019-05-12 05:00:00 16 10 Nordeste 18 Nordeste 0 935.3 -0.1 37
2019-05-12 04:00:00 15.3 10 Nordeste 17 Nordeste 0 935.2 -0.1 39
2019-05-12 03:00:00 15.7 8 Nordeste 14 Este 0 935.4 0 41
2019-05-12 02:00:00 17.3 9 Nordeste 17 Este 0 935.4 0.3 37
2019-05-12 01:00:00 18.2 10 Nordeste 17 Nordeste 0 935.3 0.8 39
2019-05-12 00:00:00 19.2 6 Nordeste 10 Norte 0 935.4 1.3 38
2019-05-11 23:00:00 19.9 7 Nordeste 13 Norte 0 935.1 1.3 37
2019-05-11 22:00:00 21.7 7 Norte 13 Norte 0 934.5 0.8 32
2019-05-11 21:00:00 25.1 7 Nordeste 21 Nordeste 0 934.1 0.5 26
2019-05-11 20:00:00 26.9 9 Nordeste 25 Este 0 933.8 0.2 24
2019-05-11 19:00:00 27.8 10 Norte 24 Noroeste 0 933.7 -0.3 24
2019-05-11 18:00:00 28 10 Nordeste 29 Norte 0 933.6 -0.6 23
2019-05-11 17:00:00 27.5 10 Nordeste 32 Noroeste 0 933.6 -0.7 24
2019-05-11 16:00:00 27.5 10 Norte 29 Oeste 0 934 -0.6 24
2019-05-11 15:00:00 26.6 12 Norte 23 Nordeste 0 934.2 -0.4 25
2019-05-11 14:00:00 25.7 7 Norte 18 Nordeste 0 934.3 -0.2 27
2019-05-11 13:00:00 24.9 6 Norte 16 Sudeste 0 934.6 0.1 31
2019-05-11 12:00:00 23.7 5 Sudeste 18 Nordeste 0 934.6 0.5 37
2019-05-11 11:00:00 21.8 4 Nordeste 17 Este 0 934.5 0.9 42
2019-05-11 10:00:00 19.1 8 Nordeste 18 Nordeste 0 934.5 1.3 58
2019-05-11 09:00:00 15.3 6 Norte 14 Norte 0 934.1 1 74
2019-05-11 08:00:00 13 7 Norte 13 Noroeste 0 933.6 0.6 82
2019-05-11 07:00:00 12.7 6 Norte 18 Norte 0 933.2 0.3 82
2019-05-11 06:00:00 13.2 8 Noroeste 14 Noroeste 0 933.1 0 81
2019-05-11 05:00:00 13.5 8 Norte 18 Norte 0 933 -0.3 80
2019-05-11 04:00:00 13.7 8 Norte 18 Noroeste 0 932.9 -0.3 81
2019-05-11 03:00:00 14.3 8 Norte 19 Noroeste 0 933.1 -0.3 78
2019-05-11 02:00:00 15.3 9 Norte 23 Noroeste 0 933.3 0.3 74
2019-05-11 01:00:00 16 11 Noroeste 20 Norte 0 933.2 0.8 71
2019-05-11 00:00:00 16 8 Norte 25 Noroeste 0 933.4 1.9 69
2019-05-10 23:00:00 17.7 11 Norte 26 Noroeste 0 933 2.1 63
2019-05-10 22:00:00 19.2 13 Norte 28 Norte 0 932.4 1.4 57
2019-05-10 21:00:00 22.1 11 Norte 28 Noroeste 0 931.5 0.5 45
2019-05-10 20:00:00 23.8 11 Norte 30 Noroeste 0 930.9 -0.1 39
2019-05-10 19:00:00 24.7 12 Norte 31 Noroeste 0 931 -0.5 33
2019-05-10 18:00:00 25.3 12 Oeste 32 Noroeste 0 931 -0.6 31
2019-05-10 17:00:00 25 7 Noroeste 27 Noroeste 0 931 -1 30
2019-05-10 16:00:00 25 13 Sudoeste 32 Noroeste 0 931.5 -0.9 29
2019-05-10 15:00:00 23.8 9 Oeste 23 Oeste 0 931.6 -0.7 33
2019-05-10 14:00:00 22.7 14 Oeste 27 Oeste 0 932 -0.1 34
2019-05-10 13:00:00 21.1 9 Oeste 22 Oeste 0 932.4 0.5 49
2019-05-10 12:00:00 19.1 8 Noroeste 18 Oeste 0 932.3 0.9 60
2019-05-10 11:00:00 17.2 5 Noroeste 13 Noroeste 0 932.1 1 75
2019-05-10 10:00:00 15.4 6 Noroeste 13 Noroeste 0 931.9 1 79
2019-05-10 09:00:00 14 3 Norte 15 Norte 0 931.4 0.6 87
2019-05-10 08:00:00 13.3 6 Norte 15 Noroeste 0 931.1 0.2 90
2019-05-10 07:00:00 13.3 4 Noroeste 18 Norte 0 930.9 0.1 93
2019-05-10 06:00:00 13.6 7 Norte 15 Noroeste 0 930.8 -0.4 93
2019-05-10 05:00:00 13.6 8 Norte 15 Norte 0 930.9 -0.8 93
2019-05-10 04:00:00 13.1 9 Noroeste 16 Noroeste 0 930.8 -0.7 91
2019-05-10 03:00:00 14.2 8 Noroeste 17 Noroeste 0 931.2 -0.3 85
2019-05-10 02:00:00 14.8 6 Noroeste 15 Oeste 0 931.7 0.3 81
2019-05-10 01:00:00 15.8 6 Oeste 13 Oeste 0 931.5 0.7 77
2019-05-10 00:00:00 16.6 8 Oeste 20 Noroeste 0 931.5 1.3 73
2019-05-09 23:00:00 17.9 10 Oeste 18 Sudoeste 0 931.4 1.4 68
2019-05-09 22:00:00 18.4 5 Sudoeste 21 Sudoeste 0 930.8 0.6 70
2019-05-09 21:00:00 19.3 10 Sudoeste 23 Sudoeste 0 930.2 -0.2 66
2019-05-09 20:00:00 20.8 14 Sudoeste 30 Sudoeste 0 930 -0.7 60
2019-05-09 19:00:00 21.5 15 Sudoeste 30 Sudoeste 0 930.2 -1.2 55
2019-05-09 18:00:00 21.2 14 Sudoeste 28 Sudoeste 0 930.4 -1.1 57
2019-05-09 17:00:00 21.1 12 Sudoeste 27 Sudoeste 0 930.7 -0.8 61
2019-05-09 16:00:00 20 10 Sudoeste 21 Sudoeste 0 931.4 -0.1 63
2019-05-09 15:00:00 19.6 10 Sudoeste 30 Sudoeste 0 931.5 0 61
2019-05-09 14:00:00 19.1 15 Oeste 34 Oeste 0 931.5 0 65
2019-05-09 13:00:00 18.7 13 Oeste 29 Oeste 0 931.5 0.2 70
2019-05-09 12:00:00 17.2 13 Oeste 24 Oeste 0 931.5 0.3 69
2019-05-09 11:00:00 16.1 12 Sudoeste 25 Sudoeste 0 931.5 0.6 80
2019-05-09 10:00:00 15.1 10 Sudoeste 20 Sur 0 931.3 0.9 89
2019-05-09 09:00:00 13.6 9 Sur 17 Sur 0.2 931.2 0.9 92
2019-05-09 08:00:00 12.7 8 Sur 13 Sur 0.2 930.9 0.6 89
2019-05-09 07:00:00 13.3 7 Sur 15 Sur 0 930.4 -0.3 85
2019-05-09 06:00:00 13.9 5 Sur 15 Oeste 0 930.3 -0.6 82
2019-05-09 05:00:00 14.4 7 Sudoeste 16 Oeste 0 930.3 -0.7 83
2019-05-09 04:00:00 14.6 9 Oeste 21 Oeste 0 930.7 -0.5 82
2019-05-09 03:00:00 14.9 11 Oeste 22 Sudoeste 0 930.9 -0.3 80
2019-05-09 02:00:00 15.1 11 Oeste 24 Oeste 0 931 -0.1 79
2019-05-09 01:00:00 15.2 15 Oeste 35 Oeste 0 931.2 0.4 78
2019-05-09 00:00:00 15.2 14 Oeste 29 Oeste 0 931.2 1 80
2019-05-08 23:00:00 15.5 10 Sudoeste 28 Sudoeste 0 931.1 1.1 79
2019-05-08 22:00:00 15.6 18 Sudoeste 35 Oeste 0 930.8 0.9 81
2019-05-08 21:00:00 16.7 15 Sudoeste 31 Sudoeste 0 930.2 0.3 69
2019-05-08 20:00:00 16.9 19 Sudoeste 35 Sudoeste 0 930 -0.1 68
2019-05-08 19:00:00 17.4 14 Sudoeste 31 Sudoeste 0 929.9 -0.8 67
2019-05-08 18:00:00 17.3 12 Sudoeste 30 Sudoeste 0 929.9 -0.7 68
2019-05-08 17:00:00 17.4 13 Sudoeste 30 Sudoeste 0 930.1 -0.7 68
2019-05-08 16:00:00 17.5 17 Sudoeste 32 Oeste 0 930.7 -0.4 66
2019-05-08 15:00:00 18.4 17 Sudoeste 36 Sudoeste 0 930.6 -0.7 61
2019-05-08 14:00:00 18 18 Sudoeste 36 Sudoeste 0 930.8 -0.2 62
2019-05-08 13:00:00 18.2 17 Sudoeste 37 Sudoeste 0 931.1 -0.1 64
2019-05-08 12:00:00 18 20 Sudoeste 40 Sudoeste 0 931.3 0.7 64
2019-05-08 11:00:00 15.8 15 Sudoeste 32 Sudoeste 0 931 0.5 74
2019-05-08 10:00:00 15 10 Sudoeste 21 Sudoeste 0 931.2 0.8 81
2019-05-08 09:00:00 13.6 9 Sur 17 Sur 0 930.6 0 87
2019-05-08 08:00:00 12.6 8 Sur 18 Sudoeste 0 930.5 -0.2 89
2019-05-08 07:00:00 12.3 7 Sudoeste 14 Oeste 0 930.4 -0.6 88
2019-05-08 06:00:00 12.7 8 Sudoeste 17 Oeste 0 930.6 -0.4 85
2019-05-08 05:00:00 13.2 6 Oeste 15 Oeste 0 930.7 -0.8 82
2019-05-08 04:00:00 13.4 7 Sudoeste 10 Sudoeste 0 931 -0.8 80
2019-05-08 03:00:00 13.9 5 Oeste 12 Noroeste 0 931 -1.2 78
2019-05-08 02:00:00 14.5 7 Oeste 11 Oeste 0 931.5 -0.5 75
2019-05-08 01:00:00 15 5 Noroeste 13 Noroeste 0 931.8 0.5 73
2019-05-08 00:00:00 16.2 8 Noroeste 19 Noroeste 0 932.2 1.2 68
2019-05-07 23:00:00 16.9 6 Norte 13 Norte 0 932 1.6 63
2019-05-07 22:00:00 18 7 Norte 23 Noroeste 0 931.3 0.9 58
2019-05-07 21:00:00 19.7 12 Norte 26 Noroeste 0 931 0.4 52
2019-05-07 20:00:00 23.3 15 Sudoeste 30 Sudoeste 0 930.4 -0.4 39
2019-05-07 19:00:00 24.7 13 Sudoeste 31 Sudoeste 0 930.4 -1.3 36
2019-05-07 18:00:00 25.1 16 Sudoeste 31 Sudoeste 0 930.6 -1.6 33
2019-05-07 17:00:00 25.7 18 Sudoeste 33 Sudoeste 0 930.8 -2.1 29
2019-05-07 16:00:00 24.7 9 Sur 28 Sudoeste 0 931.7 -1.7 31
2019-05-07 15:00:00 23.6 5 Oeste 23 Oeste 0 932.2 -1.3 36
2019-05-07 14:00:00 22.8 8 Sudoeste 24 Oeste 0 932.9 -0.5 37
2019-05-07 13:00:00 20.5 8 Noroeste 22 Sudoeste 0 933.4 -0.1 43
2019-05-07 12:00:00 20.1 7 Sudoeste 26 Sudoeste 0 933.5 0.1 46
2019-05-07 11:00:00 18.3 9 Sudoeste 19 Sudeste 0 933.4 0.2 52
2019-05-07 10:00:00 16.7 4 Sudoeste 9 Sur 0 933.5 0.7 60
2019-05-07 09:00:00 13.1 4 Noroeste 6 Noroeste 0 933.4 0.4 69
2019-05-07 08:00:00 10.6 4 Norte 5 Norte 0 933.2 -0.1 78
2019-05-07 07:00:00 10.3 4 Norte 14 Norte 0 932.8 -0.5 79
2019-05-07 06:00:00 10.6 5 Norte 14 Noroeste 0 933 -0.7 77
2019-05-07 05:00:00 11.5 9 Noroeste 15 Noroeste 0 933.3 -0.5 75
2019-05-07 04:00:00 11.9 8 Noroeste 14 Noroeste 0 933.3 -0.3 73
2019-05-07 03:00:00 12.6 6 Noroeste 16 Noroeste 0 933.7 -0.2 72
2019-05-07 02:00:00 13.5 8 Noroeste 14 Noroeste 0 933.8 0 69
2019-05-07 01:00:00 14.1 7 Noroeste 17 Oeste 0 933.6 0.5 67
2019-05-07 00:00:00 15.1 9 Oeste 20 Oeste 0 933.9 1.3 64
2019-05-06 23:00:00 16 8 Sudoeste 21 Sudoeste 0 933.8 1.8 59
2019-05-06 22:00:00 17.2 11 Sudoeste 20 Sudoeste 0 933.1 1 54
2019-05-06 21:00:00 19.5 14 Sudoeste 28 Sudoeste 0 932.6 0.4 48
2019-05-06 20:00:00 21.9 15 Sudoeste 29 Sur 0 932 -0.5 43
2019-05-06 19:00:00 22.5 14 Sudoeste 31 Sudoeste 0 932.1 -0.8 43
2019-05-06 18:00:00 22.5 13 Sudoeste 32 Sudoeste 0 932.2 -0.8 38
2019-05-06 17:00:00 23 15 Sudoeste 31 Sudoeste 0 932.5 -0.8 40
2019-05-06 16:00:00 23.6 14 Sudoeste 32 Sudoeste 0 932.9 -0.6 41
2019-05-06 15:00:00 23.3 7 Sur 33 Sudoeste 0 933 -0.6 41
2019-05-06 14:00:00 22.7 16 Sudoeste 33 Sudoeste 0 933.3 -0.2 40
2019-05-06 13:00:00 21.8 10 Sudoeste 26 Sudoeste 0 933.5 0 46
2019-05-06 12:00:00 20.5 6 Sudoeste 18 Sur 0 933.6 0.3 53
2019-05-06 11:00:00 19.4 4 Sudoeste 10 Sur 0 933.5 0.5 58
2019-05-06 10:00:00 16.3 2 Sudoeste 6 Sudoeste 0 933.5 1.1 76
2019-05-06 09:00:00 12.6 4 Sur 9 Sur 0 933.3 1 93
2019-05-06 08:00:00 10.2 5 Sur 10 Sur 0 933 0.9 92
2019-05-06 07:00:00 9.6 6 Sur 9 Sur 0 932.4 0.3 90
2019-05-06 06:00:00 10.2 5 Sur 10 Sur 0 932.3 0.1 89
2019-05-06 05:00:00 11.5 6 Sudoeste 12 Sudoeste 0 932.1 -0.2 89
2019-05-06 04:00:00 12 8 Sudoeste 14 Sudoeste 0 932.1 0 89
2019-05-06 03:00:00 12.4 6 Sudoeste 14 Oeste 0 932.2 0.2 87
2019-05-06 02:00:00 13 7 Sur 12 Sur 0 932.3 0.6 84
2019-05-06 01:00:00 14 5 Sur 13 Sudoeste 0 932.1 1 80
2019-05-06 00:00:00 15.1 7 Sur 18 Sur 0 932 1.3 77
2019-05-05 23:00:00 16 9 Sur 22 Sur 0 931.7 1.4 72
2019-05-05 22:00:00 17.1 11 Sur 21 Sur 0 931.1 0.8 66
2019-05-05 21:00:00 19.1 10 Sur 32 Sur 0 930.7 0.4 57
2019-05-05 20:00:00 21.5 16 Sudoeste 31 Sur 0 930.3 -0.2 49
2019-05-05 19:00:00 22.9 14 Sudoeste 30 Sur 0 930.3 -0.8 46
2019-05-05 18:00:00 23.1 16 Sur 31 Sur 0 930.3 -1.2 47
2019-05-05 17:00:00 23.5 12 Sudoeste 33 Sudoeste 0 930.5 -1.2 47
2019-05-05 16:00:00 23 13 Sur 30 Sudoeste 0 931.1 -0.7 48
2019-05-05 15:00:00 21.6 11 Sur 26 Sur 0 931.5 -0.1 54
2019-05-05 14:00:00 20.2 13 Sur 25 Sudeste 0 931.7 0.6 58
2019-05-05 13:00:00 19.1 8 Sur 21 Sur 0 931.8 1.1 62
2019-05-05 12:00:00 17.1 10 Sur 21 Sur 0 931.6 1.2 71
2019-05-05 11:00:00 14.4 8 Sudeste 18 Sudeste 0 931.1 1.3 87
2019-05-05 10:00:00 12.5 11 Sur 18 Sudeste 0 930.7 1.5 93
2019-05-05 09:00:00 12.1 9 Sur 17 Sur 0 930.4 1.6 94
2019-05-05 08:00:00 11.2 8 Sur 15 Sur 0 929.8 0.8 94
2019-05-05 07:00:00 11.2 8 Sur 15 Sur 0 929.2 0.3 93
2019-05-05 06:00:00 11.2 9 Sur 15 Sur 0 928.8 -0.3 93
2019-05-05 05:00:00 11.4 9 Sur 17 Sur 0 929 -0.4 91
2019-05-05 04:00:00 11.7 9 Sur 17 Sudeste 0 928.9 -0.5 89
2019-05-05 03:00:00 12.5 8 Sudeste 13 Sur 0 929.1 -0.1 87
2019-05-05 02:00:00 12.7 5 Sudeste 11 Sur 0 929.4 0.3 83
2019-05-05 01:00:00 13.4 7 Sudoeste 13 Sudoeste 0 929.4 0.6 80
2019-05-05 00:00:00 14.3 9 Sudoeste 16 Sudoeste 0 929.2 1 76
2019-05-04 23:00:00 15.5 7 Sur 15 Sudoeste 0 929.1 1.4 71
2019-05-04 22:00:00 17.3 5 Sudoeste 24 Sudoeste 0 928.8 1 61
2019-05-04 21:00:00 20.4 10 Sudoeste 20 Noroeste 0 928.2 0.4 50
2019-05-04 20:00:00 22.6 7 Noroeste 24 Oeste 0 927.7 -0.3 19
2019-05-04 19:00:00 23.1 9 Oeste 23 Noroeste 0 927.8 -0.4 21
2019-05-04 18:00:00 23.2 8 Noroeste 26 Noroeste 0 927.8 -0.5 20
2019-05-04 17:00:00 23 10 Noroeste 20 Noroeste 0 928 -0.5 22
2019-05-04 16:00:00 22.4 8 Noroeste 22 Noroeste 0 928.2 -0.6 22
2019-05-04 15:00:00 21.8 8 Nordeste 23 Oeste 0 928.3 -0.6 28
2019-05-04 14:00:00 21.4 7 Sur 21 Noroeste 0 928.5 -0.2 26
2019-05-04 13:00:00 19.9 5 Sudoeste 18 Noroeste 0 928.8 0.5 26
2019-05-04 12:00:00 18.6 8 Noroeste 17 Noroeste 0 928.9 0.8 26
2019-05-04 11:00:00 18.9 4 Sudeste 16 Sudeste 0 928.7 1.1 25
2019-05-04 10:00:00 17.2 7 Este 17 Este 0 928.3 1.1 29
2019-05-04 09:00:00 14.7 4 Este 9 Este 0 928.1 1.1 41
2019-05-04 08:00:00 10.3 4 Este 9 Nordeste 0 927.6 0.7 51
2019-05-04 07:00:00 9.8 6 Nordeste 10 Este 0 927.2 0.5 54
2019-05-04 06:00:00 10.5 6 Este 14 Este 0 927 0.2 52
2019-05-04 05:00:00 11.6 7 Este 19 Sudeste 0 926.9 0.3 49
2019-05-04 04:00:00 11.2 8 Sudeste 15 Sudeste 0 926.7 0.1 51
2019-05-04 03:00:00 11.5 8 Sudeste 18 Sudeste 0 926.8 0.6 54
2019-05-04 02:00:00 12.3 8 Nordeste 24 Este 0 926.6 0.9 51
2019-05-04 01:00:00 13.3 8 Este 24 Nordeste 0 926.6 2.1 48
2019-05-04 00:00:00 14.8 13 Nordeste 26 Nordeste 0 926.2 2.6 47
2019-05-03 23:00:00 16.1 12 Nordeste 30 Este 0 925.7 2.6 46
2019-05-03 22:00:00 18.5 13 Nordeste 33 Nordeste 0 924.5 1.6 42
2019-05-03 21:00:00 21.3 12 Noroeste 33 Noroeste 0 923.6 0.6 25
2019-05-03 20:00:00 23 17 Noroeste 39 Noroeste 0 923.1 0 23
2019-05-03 19:00:00 23.7 18 Noroeste 38 Noroeste 0 922.9 -0.7 21
2019-05-03 18:00:00 23 16 Noroeste 42 Oeste 0 923 -0.8 29
2019-05-03 17:00:00 24.5 22 Oeste 48 Noroeste 0 923.1 -1.2 24
2019-05-03 16:00:00 24 19 Noroeste 39 Oeste 0 923.6 -1.3 27
2019-05-03 15:00:00 23.4 19 Noroeste 41 Noroeste 0 923.8 -1.3 31
2019-05-03 14:00:00 23.2 17 Noroeste 37 Oeste 0 924.3 -0.9 35
2019-05-03 13:00:00 22.1 9 Sudoeste 21 Sudoeste 0 924.9 -0.4 46
2019-05-03 12:00:00 20.6 9 Sudoeste 21 Sur 0 925.1 -0.1 47
2019-05-03 11:00:00 18.9 11 Sur 25 Sur 0 925.2 0 52
2019-05-03 10:00:00 16.4 12 Sur 24 Sur 0 925.3 0.2 56
2019-05-03 09:00:00 14.3 9 Sur 17 Sur 0 925.2 0.1 62
2019-05-03 08:00:00 11.7 9 Sur 22 Sur 0 925.2 0 70
2019-05-03 07:00:00 11.7 12 Sur 22 Sur 0 925.1 -0.3 69
2019-05-03 06:00:00 12.1 12 Sur 20 Sur 0 925.1 -0.4 66
2019-05-03 05:00:00 12.6 12 Sur 21 Sur 0 925.2 -0.6 64
2019-05-03 04:00:00 13.3 11 Sur 20 Sur 0 925.4 -0.4 59
2019-05-03 03:00:00 14 11 Sur 19 Sur 0 925.5 -0.5 56
2019-05-03 02:00:00 15 12 Sur 22 Sudeste 0 925.8 -0.3 54
2019-05-03 01:00:00 16.6 10 Sur 19 Sur 0 925.8 0.2 56
2019-05-03 00:00:00 17.3 7 Sur 10 Este 0 926 1 54
2019-05-02 23:00:00 18.5 6 Este 12 Este 0 926.1 1.4 49
2019-05-02 22:00:00 19.3 7 Nordeste 17 Norte 0 925.6 0.7 45
2019-05-02 21:00:00 23 5 Nordeste 14 Norte 0 925 0.1 30
2019-05-02 20:00:00 24.9 7 Norte 20 Nordeste 0 924.7 -0.3 27
2019-05-02 19:00:00 24.6 11 Nordeste 26 Nordeste 0 924.9 -0.6 30
2019-05-02 18:00:00 24.4 9 Nordeste 23 Nordeste 0 924.9 -1.1 33
2019-05-02 17:00:00 25 14 Nordeste 29 Nordeste 0 925 -1.6 32
2019-05-02 16:00:00 24.9 9 Nordeste 19 Nordeste 0 925.5 -1.5 31
2019-05-02 15:00:00 25.4 4 Norte 20 Este 0 926 -1.1 31
2019-05-02 14:00:00 25 8 Nordeste 20 Nordeste 0 926.6 -0.5 33
2019-05-02 13:00:00 23.6 9 Nordeste 24 Nordeste 0 927 0.1 35
2019-05-02 12:00:00 22.9 10 Nordeste 23 Norte 0 927.1 0.7 35
2019-05-02 11:00:00 21.4 7 Este 19 Este 0 927.1 1 44
2019-05-02 10:00:00 18.6 10 Este 21 Sudeste 0 926.9 1.1 55
2019-05-02 09:00:00 15.7 6 Este 15 Sur 0 926.4 0.4 64
2019-05-02 08:00:00 13.7 9 Sur 17 Sudeste 0 926.1 0.1 60
2019-05-02 07:00:00 14.4 8 Sudeste 19 Este 0 925.8 -0.6 51
2019-05-02 06:00:00 14.5 7 Sudeste 13 Sudeste 0 926 -0.7 52
2019-05-02 05:00:00 15 7 Sudeste 13 Sudeste 0 926 -1.2 54
2019-05-02 04:00:00 15.1 4 Sudeste 10 Sur 0 926.4 -0.5 61
2019-05-02 03:00:00 15.4 5 Sur 8 Sudoeste 0 926.7 0.2 62
2019-05-02 02:00:00 16.5 4 Nordeste 15 Nordeste 0 927.2 0.7 59
2019-05-02 01:00:00 16.8 8 Sudoeste 12 Sudoeste 0 926.9 1 59
2019-05-02 00:00:00 18.9 8 Noroeste 15 Noroeste 0 926.5 0.7 48
2019-05-01 23:00:00 19.6 6 Noroeste 12 Oeste 0 926.5 0.9 40
2019-05-01 22:00:00 20.3 8 Oeste 17 Oeste 0 925.9 0.4 39
2019-05-01 21:00:00 21.5 9 Sudoeste 18 Oeste 0 925.8 0.3 37
2019-05-01 20:00:00 23.3 6 Oeste 12 Sudoeste 0 925.6 -0.3 36
2019-05-01 19:00:00 24.7 6 Sudoeste 13 Sudoeste 0 925.5 -1.1 33
2019-05-01 18:00:00 25.9 5 Sudoeste 18 Sur 0 925.5 -1.5 32
2019-05-01 17:00:00 26 6 Sudeste 20 Sur 0 925.9 -1.5 31
2019-05-01 16:00:00 24.6 7 Sur 19 Sur 0 926.6 -1.3 33
2019-05-01 15:00:00 25.4 5 Sur 19 Sur 0 927 -1.3 29
2019-05-01 14:00:00 25.1 6 Sudeste 17 Sudoeste 0 927.4 -0.7 28
2019-05-01 13:00:00 24.5 7 Sur 17 Sur 0 927.9 -0.1 41
2019-05-01 12:00:00 22.9 9 Sudeste 18 Sur 0 928.3 0.7 43
2019-05-01 11:00:00 21.3 9 Sur 19 Sur 0 928.1 0.8 53
2019-05-01 10:00:00 18.8 9 Sur 18 Sur 0 928 1 59
2019-05-01 09:00:00 15.8 8 Sur 17 Sur 0 927.6 0.6 67
2019-05-01 08:00:00 13.2 9 Sur 14 Sur 0 927.3 0 73
2019-05-01 07:00:00 13.5 8 Sur 13 Sudeste 0 927 -0.6 66
2019-05-01 06:00:00 14.5 3 Oeste 8 Oeste 0 927 -0.9 59
2019-05-01 05:00:00 15.7 5 Oeste 13 Noroeste 0 927.3 -1.1 56
2019-05-01 04:00:00 15.5 6 Oeste 13 Sur 0 927.6 -1.1 61
2019-05-01 03:00:00 17.3 4 Oeste 10 Oeste 0 927.9 -1 53
2019-05-01 02:00:00 17.1 6 Oeste 11 Sudoeste 0 928.4 -0.8 55
2019-05-01 01:00:00 17.3 8 Oeste 10 Oeste 0 928.7 -0.3 54
2019-05-01 00:00:00 17.7 6 Oeste 10 Oeste 0 928.9 0.5 52
2019-04-30 23:00:00 18.4 5 Sudoeste 12 Sudoeste 0 929.2 0.8 50
2019-04-30 22:00:00 20.1 8 Sudoeste 17 Sudoeste 0 929 0.5 46
2019-04-30 21:00:00 22.8 5 Noroeste 12 Norte 0 928.4 -0.4 35
2019-04-30 20:00:00 24.8 6 Noroeste 20 Noroeste 0 928.4 -0.9 30
2019-04-30 19:00:00 25.3 9 Noroeste 20 Oeste 0 928.5 -1.4 27
2019-04-30 18:00:00 25.7 8 Noroeste 21 Noroeste 0 928.8 -1.4 27
2019-04-30 17:00:00 25.8 12 Oeste 23 Oeste 0 929.3 -1.3 28
2019-04-30 16:00:00 23.7 9 Norte 22 Oeste 0 929.9 -1.3 30
2019-04-30 15:00:00 25.2 8 Sudoeste 23 Noroeste 0 930.2 -1.2 32
2019-04-30 14:00:00 24.4 6 Este 17 Oeste 0 930.6 -0.7 33
2019-04-30 13:00:00 23.5 4 Oeste 13 Sudoeste 0 931.2 0 36
2019-04-30 12:00:00 22.3 5 Sur 15 Sudoeste 0 931.4 0.4 44
2019-04-30 11:00:00 19.7 9 Sur 16 Sur 0 931.3 0.6 50
2019-04-30 10:00:00 17.7 6 Sur 10 Sur 0 931.2 0.8 54
2019-04-30 09:00:00 14.4 6 Sur 14 Sur 0 931 0.6 62
2019-04-30 08:00:00 11.3 8 Sur 15 Sur 0 930.7 0.4 68
2019-04-30 07:00:00 11.8 9 Sur 14 Sur 0 930.4 0 65
2019-04-30 06:00:00 12.6 7 Sur 12 Sudeste 0 930.4 -0.4 62
2019-04-30 05:00:00 13.5 4 Este 13 Sudeste 0 930.3 -0.8 55
2019-04-30 04:00:00 14.2 7 Sur 12 Sur 0 930.4 -0.6 53
2019-04-30 03:00:00 15.4 7 Sudoeste 13 Oeste 0 930.8 -0.5 51
2019-04-30 02:00:00 16.3 7 Sudoeste 16 Oeste 0 931.1 -0.1 48
2019-04-30 01:00:00 16.7 7 Sudoeste 15 Sudoeste 0 931 0.3 47
2019-04-30 00:00:00 17.1 8 Sudoeste 13 Sudoeste 0 931.3 1.1 48
2019-04-29 23:00:00 18.2 8 Sudoeste 14 Sudoeste 0 931.2 1.2 46
2019-04-29 22:00:00 19.8 3 Oeste 6 Noroeste 0 930.7 0.5 39
2019-04-29 21:00:00 22.5 5 Norte 10 Noroeste 0 930.2 0 33
2019-04-29 20:00:00 23.7 6 Noroeste 27 Noroeste 0 930 -0.4 28
2019-04-29 19:00:00 24.3 8 Noroeste 21 Noroeste 0 930.2 -0.6 29
2019-04-29 18:00:00 24.7 8 Norte 23 Noroeste 0 930.2 -0.9 29
2019-04-29 17:00:00 25.3 9 Noroeste 21 Oeste 0 930.4 -1.1 28
2019-04-29 16:00:00 25 5 Noroeste 17 Oeste 0 930.8 -1.4 27
2019-04-29 15:00:00 24.7 5 Oeste 17 Noroeste 0 931.1 -1.2 31
2019-04-29 14:00:00 24 5 Oeste 17 Sudoeste 0 931.5 -0.8 32
2019-04-29 13:00:00 23.4 6 Oeste 14 Oeste 0 932.2 -0.1 33
2019-04-29 12:00:00 21.8 3 Oeste 9 Norte 0 932.3 0.1 38
2019-04-29 11:00:00 20.7 3 Sudoeste 9 Sur 0 932.3 0.1 39
2019-04-29 10:00:00 18 4 Sudoeste 6 Sudoeste 0 932.3 0.6 43
2019-04-29 09:00:00 14.6 3 Sudoeste 8 Sur 0 932.2 0.5 50
2019-04-29 08:00:00 12 6 Sur 10 Sudoeste 0 932.2 0 57
2019-04-29 07:00:00 11.6 7 Sur 11 Sur 0 931.7 -0.8 59
2019-04-29 06:00:00 12 7 Sur 11 Sudoeste 0 931.7 -1 60
2019-04-29 05:00:00 12.5 7 Sudoeste 14 Sudoeste 0 932.2 -0.6 61
2019-04-29 04:00:00 13.6 8 Sur 18 Sur 0 932.5 -0.3 59
2019-04-29 03:00:00 14.4 9 Sur 14 Sur 0 932.7 -0.2 54
2019-04-29 02:00:00 17.1 7 Sudeste 12 Este 0 932.8 -0.2 39
2019-04-29 01:00:00 16.5 6 Este 10 Este 0 932.8 0.2 41
2019-04-29 00:00:00 16.2 5 Nordeste 10 Nordeste 0 932.9 0.5 43
2019-04-28 23:00:00 16.5 6 Nordeste 12 Nordeste 0 933 0.9 46
2019-04-28 22:00:00 17.8 8 Nordeste 14 Nordeste 0 932.6 0.4 45
2019-04-28 21:00:00 20.6 6 Norte 18 Norte 0 932.4 0.1 38
2019-04-28 20:00:00 23.2 8 Noroeste 19 Noroeste 0 932.1 -0.7 31
2019-04-28 19:00:00 24.3 6 Noroeste 17 Norte 0 932.2 -1.2 31
2019-04-28 18:00:00 24.8 5 Oeste 17 Nordeste 0 932.3 -1.6 24
2019-04-28 17:00:00 24.5 6 Norte 21 Este 0 932.8 -1.7 25
2019-04-28 16:00:00 24.3 5 Norte 18 Nordeste 0 933.4 -1.7 27
2019-04-28 15:00:00 23.8 7 Este 21 Este 0 933.9 -1.4 30
2019-04-28 14:00:00 23.3 5 Este 19 Este 0 934.5 -0.9 28
2019-04-28 13:00:00 23.2 8 Nordeste 21 Este 0 935.1 -0.4 32
2019-04-28 12:00:00 21.7 6 Este 23 Este 0 935.3 -0.2 36
2019-04-28 11:00:00 20.1 9 Este 19 Este 0 935.4 0 40
2019-04-28 10:00:00 18.1 9 Este 23 Este 0 935.5 0.2 45
2019-04-28 09:00:00 15.5 9 Este 18 Sudeste 0 935.5 0 51
2019-04-28 08:00:00 12.3 7 Sudeste 15 Este 0 935.4 -0.3 56
2019-04-28 07:00:00 11.1 6 Sudeste 10 Sudeste 0 935.3 -0.8 57
2019-04-28 06:00:00 12 6 Sudeste 12 Este 0 935.5 -0.9 52
2019-04-28 05:00:00 13 6 Sudeste 11 Sudeste 0 935.7 -1.2 51
2019-04-28 04:00:00 12.1 7 Sudeste 13 Este 0 936.1 -1.1 55
2019-04-28 03:00:00 13.1 7 Este 17 Este 0 936.4 -1 52
2019-04-28 02:00:00 14.1 9 Este 18 Este 0 936.9 -0.4 50
2019-04-28 01:00:00 13.4 7 Este 11 Este 0 937.2 0.2 52
2019-04-28 00:00:00 13.3 7 Este 10 Este 0 937.4 0.8 53
2019-04-27 23:00:00 14 7 Nordeste 13 Nordeste 0 937.3 0.9 54
2019-04-27 22:00:00 15.7 8 Nordeste 16 Nordeste 0 937 0.5 50
2019-04-27 21:00:00 18.8 7 Nordeste 16 Norte 0 936.6 0 42
2019-04-27 20:00:00 21.3 8 Norte 16 Norte 0 936.4 -0.7 31
2019-04-27 19:00:00 21.7 5 Nordeste 16 Nordeste 0 936.5 -1.3 30
2019-04-27 18:00:00 21.7 7 Norte 15 Nordeste 0 936.6 -1.8 30
2019-04-27 17:00:00 21.8 5 Este 25 Nordeste 0 937.1 -1.7 31
2019-04-27 16:00:00 21.3 6 Este 18 Este 0 937.8 -1.5 28
2019-04-27 15:00:00 20.4 8 Nordeste 24 Nordeste 0 938.4 -0.9 28
2019-04-27 14:00:00 19.6 7 Nordeste 24 Este 0 938.8 -0.2 28
2019-04-27 13:00:00 18.7 11 Este 28 Este 0 939.3 0.5 32
2019-04-27 12:00:00 17.8 13 Este 31 Nordeste 0 939.3 0.5 37
2019-04-27 11:00:00 16.7 13 Este 27 Este 0 939 0.5 39
2019-04-27 10:00:00 14.8 9 Nordeste 17 Este 0 938.8 0.8 48
2019-04-27 09:00:00 12.1 5 Nordeste 9 Este 0 938.8 0.8 58
2019-04-27 08:00:00 9.1 6 Este 8 Este 0 938.5 0.4 66
2019-04-27 07:00:00 9.2 6 Este 8 Este 0 938 -0.3 65
2019-04-27 06:00:00 7.6 6 Nordeste 10 Nordeste 0 938 -0.5 73
2019-04-27 05:00:00 7.6 6 Este 11 Nordeste 0 938.1 -0.9 73
2019-04-27 04:00:00 7.7 6 Nordeste 12 Nordeste 0 938.3 -0.9 73
2019-04-27 03:00:00 7.9 6 Nordeste 17 Este 0 938.5 -0.8 71
2019-04-27 02:00:00 8.5 6 Norte 12 Norte 0 939 -0.1 69
2019-04-27 01:00:00 9.4 7 Norte 13 Norte 0 939.2 0.6 67
2019-04-27 00:00:00 10 7 Norte 14 Norte 0 939.3 1.2 65
2019-04-26 23:00:00 10.5 8 Norte 15 Norte 0 939.1 1.2 64
2019-04-26 22:00:00 11.5 7 Norte 13 Norte 0 938.6 0.8 59
2019-04-26 21:00:00 13.6 7 Noroeste 15 Noroeste 0 938.1 0.5 51
2019-04-26 20:00:00 15.6 7 Norte 21 Noroeste 0 937.9 0 45
2019-04-26 19:00:00 15.7 11 Noroeste 25 Norte 0 937.8 -0.3 42
2019-04-26 18:00:00 15.9 12 Noroeste 27 Norte 0 937.6 -0.9 42
2019-04-26 17:00:00 15.5 11 Norte 28 Oeste 0 937.9 -0.6 44
2019-04-26 16:00:00 15.3 8 Noroeste 19 Norte 0 938.1 -0.6 46
2019-04-26 15:00:00 14.4 6 Noroeste 22 Noroeste 0 938.5 -0.1 46
2019-04-26 14:00:00 14.2 6 Nordeste 25 Este 0 938.5 0.2 51
2019-04-26 13:00:00 11.6 6 Noroeste 21 Norte 0 938.7 0.7 60
2019-04-26 12:00:00 10.8 6 Norte 17 Norte 0 938.6 1.3 66
2019-04-26 11:00:00 9 8 Norte 21 Nordeste 0 938.3 1.8 76
2019-04-26 10:00:00 7.2 8 Norte 20 Norte 0 938 1.9 86
2019-04-26 09:00:00 6.1 8 Norte 15 Norte 0 937.3 1.6 91
2019-04-26 08:00:00 5.3 6 Noroeste 19 Norte 0 936.5 0.9 89
2019-04-26 07:00:00 4.8 7 Norte 16 Norte 0 936.1 0.7 90
2019-04-26 06:00:00 3.9 6 Norte 18 Norte 0 935.7 0.3 89
2019-04-26 05:00:00 4.2 7 Norte 13 Oeste 0 935.6 0.3 86
2019-04-26 04:00:00 4.9 9 Oeste 19 Noroeste 0 935.4 0.4 82
2019-04-26 03:00:00 5.8 7 Noroeste 32 Noroeste 0 935.4 0.8 80
2019-04-26 02:00:00 6.6 12 Noroeste 25 Noroeste 0 935.3 1.3 79
2019-04-26 01:00:00 7.1 12 Noroeste 23 Noroeste 0 935 1.9 78
2019-04-26 00:00:00 7.4 15 Oeste 24 Oeste 0 934.6 2.7 77
2019-04-25 23:00:00 7.7 11 Oeste 27 Oeste 0 934 2.7 75
2019-04-25 22:00:00 8.8 12 Oeste 31 Oeste 0 933.1 2.2 68
2019-04-25 21:00:00 10 14 Oeste 32 Oeste 0 931.9 1.9 66
2019-04-25 20:00:00 11.4 16 Oeste 36 Oeste 0.2 931.3 1.7 70
2019-04-25 19:00:00 11.7 23 Oeste 41 Oeste 0 930.9 1.2 69
2019-04-25 18:00:00 12.3 27 Oeste 49 Sudoeste 0 930 0.5 57
2019-04-25 17:00:00 14.3 26 Oeste 46 Sudoeste 0 929.6 0.2 49
2019-04-25 16:00:00 12.2 28 Oeste 45 Oeste 0 929.7 0.4 60
2019-04-25 15:00:00 12.3 20 Oeste 44 Sudoeste 0 929.5 0.2 61
2019-04-25 14:00:00 11.6 19 Oeste 48 Oeste 0 929.4 0.7 70
2019-04-25 13:00:00 11.9 23 Oeste 42 Oeste 0 929.3 1.2 61
2019-04-25 12:00:00 10.1 24 Oeste 39 Oeste 0 929.3 2.1 74
2019-04-25 11:00:00 9.7 20 Oeste 41 Oeste 0 928.7 2.3 82
2019-04-25 10:00:00 8.4 17 Oeste 26 Oeste 0.2 928.1 2.5 92
2019-04-25 09:00:00 7.1 11 Oeste 41 Noroeste 0.2 927.2 2 92
2019-04-25 08:00:00 8.4 14 Oeste 26 Noroeste 0 926.4 1.4 93
2019-04-25 07:00:00 8.3 17 Oeste 32 Oeste 0.6 925.6 0.9 93
2019-04-25 06:00:00 8.2 15 Oeste 26 Oeste 1.6 925.2 0.7 93
2019-04-25 05:00:00 8.3 14 Oeste 40 Oeste 4.6 925 0.1 93
2019-04-25 04:00:00 10.5 14 Oeste 39 Sudoeste 3.8 924.7 0 92
2019-04-25 03:00:00 11 15 Sudoeste 46 Sudoeste 2 924.5 -0.5 93
2019-04-25 02:00:00 10.9 24 Sudoeste 48 Sudoeste 0.8 924.9 0.1 93
2019-04-25 01:00:00 10.9 22 Sudoeste 44 Sudoeste 0.8 924.7 0.4 94
2019-04-25 00:00:00 10.9 21 Sudoeste 43 Sudoeste 0.6 925 1 94
2019-04-24 23:00:00 10.7 22 Sudoeste 50 Sudoeste 1.8 924.8 1.2 93
2019-04-24 22:00:00 10.5 23 Sudoeste 49 Sur 1.2 924.3 1 93
2019-04-24 21:00:00 10.5 23 Sudoeste 56 Sur 0.4 924 0.7 92
2019-04-24 20:00:00 10.5 28 Sudoeste 63 Sudoeste 0 923.6 0.5 91
2019-04-24 19:00:00 10.7 33 Sudoeste 66 Sur 0.2 923.3 0.1 88
2019-04-24 18:00:00 11 27 Sudoeste 61 Sudoeste 0 923.3 -0.4 87
2019-04-24 17:00:00 11.1 33 Sudoeste 64 Sudoeste 0 923.1 -0.4 87
2019-04-24 16:00:00 10.7 32 Sudoeste 63 Sudoeste 0 923.2 -0.2 89
2019-04-24 15:00:00 10.1 26 Sudoeste 52 Sudoeste 0.2 923.7 0.4 89
2019-04-24 14:00:00 10.3 28 Sudoeste 55 Sudoeste 0 923.5 0.4 86
2019-04-24 13:00:00 10.1 27 Sudoeste 60 Sudoeste 0 923.4 0.7 86
2019-04-24 12:00:00 8.7 25 Sudoeste 53 Sudoeste 0 923.3 1.3 91
2019-04-24 11:00:00 7.5 19 Sudoeste 55 Sur 0 923.1 1 93
2019-04-24 10:00:00 6.6 23 Sudoeste 54 Sur 0 922.7 1.2 94
2019-04-24 09:00:00 6 20 Sur 41 Sur 0 922 0.5 94
2019-04-24 08:00:00 4.9 14 Sur 29 Sur 0 922.1 0.6 94
2019-04-24 07:00:00 4 10 Sur 21 Sur 0 921.5 0 93
2019-04-24 06:00:00 3.4 10 Sur 19 Sur 0 921.5 -0.1 93
2019-04-24 05:00:00 3.5 9 Sur 18 Sudoeste 0 921.5 -0.1 92
2019-04-24 04:00:00 3.1 8 Sur 15 Sudoeste 0 921.5 0.4 91
2019-04-24 03:00:00 3.8 9 Sudoeste 19 Sudoeste 0.2 921.6 0.7 90
2019-04-24 02:00:00 4.7 12 Sudoeste 21 Sudoeste 0 921.6 1.1 90
2019-04-24 01:00:00 4 11 Sudoeste 18 Sudoeste 0 921.1 1.2 90
2019-04-24 00:00:00 4.6 10 Sudoeste 23 Sudoeste 0 920.9 2.5 89
2019-04-23 23:00:00 4.8 17 Oeste 38 Oeste 1 920.5 2.7 87
2019-04-23 22:00:00 4.6 16 Oeste 32 Noroeste 0 919.9 2.3 84
2019-04-23 21:00:00 6.7 10 Oeste 26 Oeste 0 918.4 1.2 77
2019-04-23 20:00:00 7.6 10 Sudoeste 29 Sudoeste 0 917.8 1.2 78
2019-04-23 19:00:00 7.7 14 Sudoeste 53 Oeste 1 917.6 1 85
2019-04-23 18:00:00 6.8 23 Sudoeste 40 Sudoeste 0.6 917.2 1.1 78
2019-04-23 17:00:00 9.5 15 Oeste 38 Sudoeste 0.4 916.6 0.4 72
2019-04-23 16:00:00 9.7 19 Sudoeste 41 Oeste 0 916.6 0.1 63
2019-04-23 15:00:00 10.4 24 Oeste 43 Sudoeste 0 916.1 -0.2 51
2019-04-23 14:00:00 10.3 24 Oeste 40 Oeste 0 916.2 0.6 61
2019-04-23 13:00:00 9.5 21 Oeste 34 Oeste 0 916.5 1.6 65
2019-04-23 12:00:00 8.2 15 Oeste 33 Oeste 0 916.3 2.2 75
2019-04-23 11:00:00 6.5 15 Oeste 29 Oeste 0 915.6 1.3 90
2019-04-23 10:00:00 6.6 14 Oeste 29 Noroeste 0.8 914.9 1.5 92
2019-04-23 09:00:00 7.5 6 Oeste 32 Oeste 3.6 914.1 0.2 92
2019-04-23 08:00:00 8 22 Oeste 42 Oeste 5.2 914.3 -0.2 88
2019-04-23 07:00:00 9.4 17 Sudoeste 38 Sudoeste 0 913.4 -1.3 85
2019-04-23 06:00:00 9.4 16 Sudoeste 40 Sudoeste 0 913.9 -1.9 83
2019-04-23 05:00:00 9.5 20 Sudoeste 45 Sur 0.2 914.5 -1.7 83
2019-04-23 04:00:00 9.7 19 Sudoeste 38 Sur 0 914.7 -1.6 85
2019-04-23 03:00:00 10.1 19 Sudoeste 37 Sudoeste 0 915.8 -0.6 90
2019-04-23 02:00:00 10.8 15 Sur 35 Sudoeste 0 916.2 -0.3 86
2019-04-23 01:00:00 11.1 15 Sudoeste 39 Sudoeste 0 916.3 0.1 80
2019-04-23 00:00:00 12.6 11 Sur 28 Sur 0 916.4 0.4 60